Time;durP1;ratioP1;P1;durP2;ratioP2;P2;SDS_P1;SDS_P2;PMS_P1;PMS_P2;Temp;Humidity;BMP_temperature;BMP_pressure;BME280_temperature;BME280_humidity;BME280_pressure;Samples;Min_cycle;Max_cycle;Signal;HPM_P1;HPM_P2
2022/11/30 00:01:32;;;;;;;14.57;10.50;;;;;;;;;;5061516;28;20204;-81
2022/11/30 00:03:57;;;;;;;13.87;10.03;;;;;;;;;;5056975;28;20292;-81
2022/11/30 00:06:23;;;;;;;13.37;10.23;;;;;;;;;;5054266;28;20170;-81
2022/11/30 00:08:50;;;;;;;14.93;11.17;;;;;;;;;;5048033;28;20212;-81
2022/11/30 00:11:17;;;;;;;16.80;10.80;;;;;;;;;;5051647;28;20658;-81
2022/11/30 00:13:42;;;;;;;14.63;11.00;;;;;;;;;;5035935;28;20190;-81
2022/11/30 00:16:08;;;;;;;13.43;9.47;;;;;;;;;;5055820;28;20185;-81
2022/11/30 00:18:33;;;;;;;14.90;10.77;;;;;;;;;;5053433;28;20177;-81
2022/11/30 00:20:59;;;;;;;15.77;10.70;;;;;;;;;;5054804;28;20185;-81
2022/11/30 00:23:25;;;;;;;14.30;10.43;;;;;;;;;;5056716;28;20201;-82
2022/11/30 00:25:50;;;;;;;16.17;10.30;;;;;;;;;;5063317;28;20193;-81
2022/11/30 00:28:15;;;;;;;16.40;10.57;;;;;;;;;;5038694;28;20176;-81
2022/11/30 00:30:40;;;;;;;18.80;11.00;;;;;;;;;;5061363;28;20168;-81
2022/11/30 00:33:05;;;;;;;19.30;11.43;;;;;;;;;;5040389;28;20209;-81
2022/11/30 00:35:30;;;;;;;18.00;11.87;;;;;;;;;;5055994;28;20624;-81
2022/11/30 00:37:56;;;;;;;19.83;11.47;;;;;;;;;;5059305;28;20185;-81
2022/11/30 00:40:21;;;;;;;16.17;10.97;;;;;;;;;;5055276;28;20190;-81
2022/11/30 00:42:46;;;;;;;18.23;11.77;;;;;;;;;;5057589;28;20385;-81
2022/11/30 00:45:11;;;;;;;18.10;13.50;;;;;;;;;;5052372;28;20206;-81
2022/11/30 00:47:37;;;;;;;19.33;12.97;;;;;;;;;;5052756;28;20204;-81
2022/11/30 00:50:02;;;;;;;20.20;12.10;;;;;;;;;;5062937;28;20170;-81
2022/11/30 00:52:29;;;;;;;18.33;11.93;;;;;;;;;;5049710;28;20201;-81
2022/11/30 00:54:54;;;;;;;20.30;12.03;;;;;;;;;;5058727;28;20188;-81
2022/11/30 00:57:19;;;;;;;20.07;11.93;;;;;;;;;;5060390;28;20177;-81
2022/11/30 00:59:44;;;;;;;17.73;12.13;;;;;;;;;;5052624;28;20184;-82
2022/11/30 01:02:09;;;;;;;18.20;11.50;;;;;;;;;;5059290;28;20178;-81
2022/11/30 01:04:35;;;;;;;18.63;12.10;;;;;;;;;;5055053;28;20202;-81
2022/11/30 01:07:00;;;;;;;17.53;11.70;;;;;;;;;;5059767;28;20555;-81
2022/11/30 01:09:25;;;;;;;17.10;11.77;;;;;;;;;;5058050;28;20218;-81
2022/11/30 01:11:50;;;;;;;16.10;11.27;;;;;;;;;;5057697;28;20204;-81
2022/11/30 01:14:15;;;;;;;15.93;11.10;;;;;;;;;;5055415;28;20289;-81
2022/11/30 01:16:41;;;;;;;19.63;11.33;;;;;;;;;;5062084;28;20169;-81
2022/11/30 01:19:06;;;;;;;16.93;11.77;;;;;;;;;;5040287;28;20190;-80
2022/11/30 01:21:32;;;;;;;17.87;11.57;;;;;;;;;;5057726;28;20649;-81
2022/11/30 01:23:57;;;;;;;18.53;11.77;;;;;;;;;;5043299;28;20209;-82
2022/11/30 01:26:23;;;;;;;16.87;10.53;;;;;;;;;;5071304;28;20227;-81
2022/11/30 01:28:49;;;;;;;14.77;11.23;;;;;;;;;;5045060;28;20180;-81
2022/11/30 01:31:14;;;;;;;18.73;12.67;;;;;;;;;;5057432;28;20186;-81
2022/11/30 01:33:40;;;;;;;18.60;11.60;;;;;;;;;;5057878;28;20566;-80
2022/11/30 01:36:13;;;;;;;17.83;12.20;;;;;;;;;;5036152;28;20269;-79
2022/11/30 01:38:40;;;;;;;18.20;11.23;;;;;;;;;;5055007;28;20315;-79
2022/11/30 01:41:06;;;;;;;18.67;11.63;;;;;;;;;;5055627;28;20185;-79
2022/11/30 01:43:43;;;;;;;16.77;11.10;;;;;;;;;;5037564;28;20204;-79
2022/11/30 01:46:21;;;;;;;15.93;10.53;;;;;;;;;;5056720;28;20263;-79
2022/11/30 01:48:54;;;;;;;17.20;10.83;;;;;;;;;;5060235;28;20173;-79
2022/11/30 01:51:19;;;;;;;18.00;11.77;;;;;;;;;;5046275;28;20181;-79
2022/11/30 01:53:44;;;;;;;19.00;11.53;;;;;;;;;;5061032;28;20197;-79
2022/11/30 01:56:09;;;;;;;15.47;10.97;;;;;;;;;;5058638;28;20235;-79
2022/11/30 01:58:35;;;;;;;17.43;10.97;;;;;;;;;;5058107;28;20208;-79
2022/11/30 02:01:00;;;;;;;15.00;10.97;;;;;;;;;;5055523;28;20693;-79
2022/11/30 02:03:42;;;;;;;16.60;11.20;;;;;;;;;;5041888;28;20550;-79
2022/11/30 02:06:08;;;;;;;16.93;11.00;;;;;;;;;;5038849;28;20683;-80
2022/11/30 02:08:33;;;;;;;17.53;12.50;;;;;;;;;;5054424;28;20261;-80
2022/11/30 02:11:01;;;;;;;17.80;12.00;;;;;;;;;;5051159;28;20196;-80
2022/11/30 02:13:39;;;;;;;18.60;12.33;;;;;;;;;;5060628;28;20192;-79
2022/11/30 02:16:05;;;;;;;19.27;11.80;;;;;;;;;;5034910;28;20760;-80
2022/11/30 02:18:36;;;;;;;19.63;13.23;;;;;;;;;;5052438;28;20205;-80
2022/11/30 02:21:17;;;;;;;17.00;11.43;;;;;;;;;;5054758;28;20184;-79
2022/11/30 02:24:08;;;;;;;20.50;13.53;;;;;;;;;;5051508;28;20343;-79
2022/11/30 02:26:46;;;;;;;20.33;13.37;;;;;;;;;;5014147;28;20203;-79
2022/11/30 02:29:12;;;;;;;20.00;12.93;;;;;;;;;;5065377;28;20556;-80
2022/11/30 02:31:41;;;;;;;20.27;12.80;;;;;;;;;;5059889;28;20177;-79
2022/11/30 02:34:09;;;;;;;17.80;11.93;;;;;;;;;;5041757;28;20213;-79
2022/11/30 02:36:34;;;;;;;19.70;12.90;;;;;;;;;;5059835;28;20652;-79
2022/11/30 02:38:59;;;;;;;22.73;13.03;;;;;;;;;;5057634;28;20222;-79
2022/11/30 02:41:25;;;;;;;19.43;12.23;;;;;;;;;;5036771;28;20189;-79
2022/11/30 02:43:50;;;;;;;18.77;12.40;;;;;;;;;;5042368;28;20222;-79
2022/11/30 02:46:18;;;;;;;19.97;12.97;;;;;;;;;;5061155;28;20209;-79
2022/11/30 02:49:13;;;;;;;18.73;13.00;;;;;;;;;;5053669;28;20197;-79
2022/11/30 02:51:38;;;;;;;19.83;12.60;;;;;;;;;;5043765;28;20227;-79
2022/11/30 02:54:04;;;;;;;23.93;14.33;;;;;;;;;;5059027;28;20276;-80
2022/11/30 02:56:29;;;;;;;19.77;13.00;;;;;;;;;;5034346;28;20243;-80
2022/11/30 02:58:54;;;;;;;19.73;13.57;;;;;;;;;;5052458;28;20177;-80
2022/11/30 03:01:20;;;;;;;22.37;13.53;;;;;;;;;;5046472;28;20184;-80
2022/11/30 03:03:45;;;;;;;21.07;12.80;;;;;;;;;;5044787;28;20388;-80
2022/11/30 03:06:10;;;;;;;22.37;13.73;;;;;;;;;;5053254;28;20201;-80
2022/11/30 03:08:35;;;;;;;19.80;12.47;;;;;;;;;;5053812;28;20169;-80
2022/11/30 03:11:02;;;;;;;19.90;12.03;;;;;;;;;;5051907;28;20251;-79
2022/11/30 03:13:27;;;;;;;21.67;13.43;;;;;;;;;;5032750;28;20569;-80
2022/11/30 03:15:52;;;;;;;22.37;13.67;;;;;;;;;;5034022;28;20178;-81
2022/11/30 03:18:17;;;;;;;24.23;14.70;;;;;;;;;;5035110;28;20181;-80
2022/11/30 03:20:42;;;;;;;21.60;13.53;;;;;;;;;;5034082;28;20273;-80
2022/11/30 03:23:08;;;;;;;22.70;13.10;;;;;;;;;;5039293;28;20194;-78
2022/11/30 03:25:33;;;;;;;20.03;12.80;;;;;;;;;;5061236;28;20201;-78
2022/11/30 03:28:02;;;;;;;21.53;12.63;;;;;;;;;;5058251;28;20186;-78
2022/11/30 03:30:27;;;;;;;18.80;11.93;;;;;;;;;;5069459;28;20174;-79
2022/11/30 03:32:52;;;;;;;21.37;12.80;;;;;;;;;;5061369;28;20236;-78
2022/11/30 03:35:18;;;;;;;18.73;11.53;;;;;;;;;;5065057;28;20185;-78
2022/11/30 03:37:43;;;;;;;20.70;13.63;;;;;;;;;;5065013;28;20178;-79
2022/11/30 03:40:08;;;;;;;22.27;13.17;;;;;;;;;;5049262;28;20200;-79
2022/11/30 03:42:33;;;;;;;19.93;12.87;;;;;;;;;;5065995;28;20190;-79
2022/11/30 03:44:58;;;;;;;24.20;13.60;;;;;;;;;;5066553;28;20205;-79
2022/11/30 03:47:24;;;;;;;20.80;12.73;;;;;;;;;;5063342;28;20196;-78
2022/11/30 03:49:49;;;;;;;22.73;13.27;;;;;;;;;;5065817;28;20178;-79
2022/11/30 03:52:14;;;;;;;22.17;12.70;;;;;;;;;;5060253;28;20212;-79
2022/11/30 03:54:39;;;;;;;18.10;12.00;;;;;;;;;;5066627;28;20181;-77
2022/11/30 03:57:04;;;;;;;18.00;12.90;;;;;;;;;;5065970;28;20181;-78
2022/11/30 03:59:30;;;;;;;18.53;11.70;;;;;;;;;;5060302;28;20181;-78
2022/11/30 04:01:55;;;;;;;20.50;13.03;;;;;;;;;;5065793;28;20177;-79
2022/11/30 04:04:20;;;;;;;18.67;11.90;;;;;;;;;;5067414;28;20288;-79
2022/11/30 04:06:45;;;;;;;14.83;10.87;;;;;;;;;;5068912;28;20233;-79
2022/11/30 04:09:10;;;;;;;17.90;11.50;;;;;;;;;;5065701;28;20185;-79
2022/11/30 04:11:35;;;;;;;17.80;11.37;;;;;;;;;;5046056;28;20673;-80
2022/11/30 04:14:01;;;;;;;20.90;12.87;;;;;;;;;;5060820;28;20197;-80
2022/11/30 04:16:26;;;;;;;22.03;14.53;;;;;;;;;;5060186;28;20169;-80
2022/11/30 04:18:51;;;;;;;20.93;13.00;;;;;;;;;;5058320;28;20170;-80
2022/11/30 04:21:17;;;;;;;19.07;12.37;;;;;;;;;;5039653;28;20273;-80
2022/11/30 04:23:43;;;;;;;21.20;13.10;;;;;;;;;;5058665;28;20676;-79
2022/11/30 04:26:10;;;;;;;19.07;11.90;;;;;;;;;;5070318;28;20208;-80
2022/11/30 04:28:35;;;;;;;21.63;13.00;;;;;;;;;;5066370;28;20678;-80
2022/11/30 04:31:01;;;;;;;19.13;12.83;;;;;;;;;;5065461;28;20181;-79
2022/11/30 04:33:27;;;;;;;19.33;12.53;;;;;;;;;;5067181;28;20409;-79
2022/11/30 04:35:53;;;;;;;21.53;12.70;;;;;;;;;;5062083;28;20185;-79
2022/11/30 04:38:19;;;;;;;20.70;13.00;;;;;;;;;;5063660;28;20190;-80
2022/11/30 04:40:44;;;;;;;21.10;12.63;;;;;;;;;;5060331;28;20319;-80
2022/11/30 04:43:09;;;;;;;22.30;11.90;;;;;;;;;;5062999;28;20200;-80
2022/11/30 04:45:35;;;;;;;18.67;11.77;;;;;;;;;;5049201;28;20587;-80
2022/11/30 04:48:00;;;;;;;20.03;12.43;;;;;;;;;;5063088;28;20187;-80
2022/11/30 04:50:26;;;;;;;18.90;12.70;;;;;;;;;;5058122;28;20176;-79
2022/11/30 04:52:51;;;;;;;18.77;12.07;;;;;;;;;;5050550;28;20197;-79
2022/11/30 04:55:19;;;;;;;21.07;11.77;;;;;;;;;;5056133;28;20319;-80
2022/11/30 04:57:45;;;;;;;21.77;13.70;;;;;;;;;;5056641;28;20547;-79
2022/11/30 05:00:11;;;;;;;20.47;13.30;;;;;;;;;;5040830;28;20189;-79
2022/11/30 05:02:36;;;;;;;19.63;13.00;;;;;;;;;;5065476;28;20196;-80
2022/11/30 05:05:01;;;;;;;17.87;12.20;;;;;;;;;;5057430;28;20606;-80
2022/11/30 05:07:26;;;;;;;24.87;13.77;;;;;;;;;;5058562;28;20173;-80
2022/11/30 05:09:52;;;;;;;23.17;14.53;;;;;;;;;;5039152;28;20245;-80
2022/11/30 05:12:18;;;;;;;19.80;12.70;;;;;;;;;;5073790;28;20181;-80
2022/11/30 05:14:43;;;;;;;23.60;14.53;;;;;;;;;;5066035;28;20260;-80
2022/11/30 05:17:08;;;;;;;23.20;14.17;;;;;;;;;;5062520;28;20189;-80
2022/11/30 05:19:33;;;;;;;23.13;14.63;;;;;;;;;;5060814;28;20185;-80
2022/11/30 05:21:58;;;;;;;22.73;14.67;;;;;;;;;;5058753;28;20252;-81
2022/11/30 05:24:23;;;;;;;22.53;14.73;;;;;;;;;;5043732;28;20717;-80
2022/11/30 05:26:49;;;;;;;23.90;14.17;;;;;;;;;;5065671;28;20196;-80
2022/11/30 05:29:14;;;;;;;20.87;13.70;;;;;;;;;;5043092;28;20201;-80
2022/11/30 05:31:39;;;;;;;22.63;14.13;;;;;;;;;;5054820;28;20181;-80
2022/11/30 05:34:05;;;;;;;20.30;13.47;;;;;;;;;;5043787;28;20272;-80
2022/11/30 05:36:30;;;;;;;21.07;13.63;;;;;;;;;;5038595;28;20177;-80
2022/11/30 05:38:55;;;;;;;23.63;14.40;;;;;;;;;;5059035;28;20549;-80
2022/11/30 05:41:20;;;;;;;23.70;14.53;;;;;;;;;;5055634;28;20256;-80
2022/11/30 05:43:45;;;;;;;25.03;14.33;;;;;;;;;;5061899;28;20284;-80
2022/11/30 05:46:11;;;;;;;20.77;13.90;;;;;;;;;;5054495;28;20254;-80
2022/11/30 05:48:36;;;;;;;21.30;13.93;;;;;;;;;;5053751;28;20184;-80
2022/11/30 05:51:12;;;;;;;19.93;12.47;;;;;;;;;;5053593;28;20296;-80
2022/11/30 05:53:37;;;;;;;19.87;12.50;;;;;;;;;;5036741;28;20204;-80
2022/11/30 05:56:04;;;;;;;17.70;12.60;;;;;;;;;;5060741;28;20185;-80
2022/11/30 05:58:29;;;;;;;19.13;12.53;;;;;;;;;;5057247;28;20188;-80
2022/11/30 06:00:54;;;;;;;17.23;11.93;;;;;;;;;;5035741;28;20178;-80
2022/11/30 06:03:19;;;;;;;22.47;13.40;;;;;;;;;;5059299;28;20221;-80
2022/11/30 06:05:44;;;;;;;21.83;13.17;;;;;;;;;;5051716;28;20265;-80
2022/11/30 06:08:09;;;;;;;18.83;13.17;;;;;;;;;;5058246;28;20279;-80
2022/11/30 06:10:35;;;;;;;19.43;12.73;;;;;;;;;;5059805;28;20264;-80
2022/11/30 06:13:04;;;;;;;21.57;13.67;;;;;;;;;;5059571;28;20197;-80
2022/11/30 06:15:30;;;;;;;21.50;12.27;;;;;;;;;;5055913;28;20216;-80
2022/11/30 06:17:55;;;;;;;20.10;13.53;;;;;;;;;;5039437;28;20288;-80
2022/11/30 06:20:20;;;;;;;19.80;12.83;;;;;;;;;;5055189;28;20614;-80
2022/11/30 06:22:46;;;;;;;21.27;14.37;;;;;;;;;;5036963;28;20200;-80
2022/11/30 06:25:11;;;;;;;20.10;13.80;;;;;;;;;;5039233;28;20696;-80
2022/11/30 06:27:37;;;;;;;23.90;13.83;;;;;;;;;;5039985;28;20253;-80
2022/11/30 06:30:02;;;;;;;23.63;14.07;;;;;;;;;;5040251;28;20186;-83
2022/11/30 06:32:27;;;;;;;20.70;13.00;;;;;;;;;;5058478;28;20193;-81
2022/11/30 06:34:52;;;;;;;21.17;12.67;;;;;;;;;;5042849;28;20180;-80
2022/11/30 06:37:18;;;;;;;20.87;12.07;;;;;;;;;;5062788;28;20185;-80
2022/11/30 06:39:43;;;;;;;21.10;13.00;;;;;;;;;;5042516;28;20203;-80
2022/11/30 06:42:08;;;;;;;16.77;11.23;;;;;;;;;;5056260;28;20173;-80
2022/11/30 06:44:33;;;;;;;17.50;11.00;;;;;;;;;;5041487;28;20268;-80
2022/11/30 06:46:58;;;;;;;18.43;11.13;;;;;;;;;;5063454;28;20189;-81
2022/11/30 06:49:24;;;;;;;16.17;11.47;;;;;;;;;;5059698;28;20186;-81
2022/11/30 06:51:49;;;;;;;19.90;11.80;;;;;;;;;;5037801;28;20178;-80
2022/11/30 06:54:14;;;;;;;21.70;15.30;;;;;;;;;;5050763;28;20213;-80
2022/11/30 06:56:39;;;;;;;19.67;10.83;;;;;;;;;;5052788;28;20235;-80
2022/11/30 06:59:04;;;;;;;21.53;13.23;;;;;;;;;;5056217;28;20186;-80
2022/11/30 07:01:29;;;;;;;18.53;12.00;;;;;;;;;;5048365;28;20197;-80
2022/11/30 07:03:55;;;;;;;21.83;12.97;;;;;;;;;;5038652;28;20219;-80
2022/11/30 07:06:20;;;;;;;21.17;13.30;;;;;;;;;;5054928;28;20208;-80
2022/11/30 07:08:45;;;;;;;21.33;12.13;;;;;;;;;;5046481;28;20542;-80
2022/11/30 07:11:10;;;;;;;18.77;12.00;;;;;;;;;;5054621;28;20173;-80
2022/11/30 07:13:36;;;;;;;20.27;12.93;;;;;;;;;;5041495;28;20276;-80
2022/11/30 07:16:02;;;;;;;20.33;12.73;;;;;;;;;;5051696;28;20192;-80
2022/11/30 07:18:27;;;;;;;25.10;13.43;;;;;;;;;;5037697;28;20185;-80
2022/11/30 07:20:52;;;;;;;19.90;13.13;;;;;;;;;;5051526;28;20251;-80
2022/11/30 07:26:05;;;;;;;21.20;13.20;;;;;;;;;;5057340;28;20211;-80
2022/11/30 07:28:30;;;;;;;21.60;13.30;;;;;;;;;;5057781;28;20173;-80
2022/11/30 07:30:55;;;;;;;26.57;14.10;;;;;;;;;;5057925;28;20249;-80
2022/11/30 07:33:20;;;;;;;21.67;12.90;;;;;;;;;;5052368;28;20710;-80
2022/11/30 07:35:46;;;;;;;19.93;12.83;;;;;;;;;;5056758;28;20563;-80
2022/11/30 07:38:11;;;;;;;21.37;13.80;;;;;;;;;;5056065;28;20185;-80
2022/11/30 07:40:36;;;;;;;22.13;13.07;;;;;;;;;;5039030;28;20212;-80
2022/11/30 07:43:01;;;;;;;22.53;14.03;;;;;;;;;;5038718;28;20210;-80
2022/11/30 07:45:27;;;;;;;22.43;13.57;;;;;;;;;;5038056;28;20280;-80
2022/11/30 07:47:52;;;;;;;24.60;14.47;;;;;;;;;;5039640;28;20178;-80
2022/11/30 07:50:17;;;;;;;24.63;14.43;;;;;;;;;;5056742;28;20173;-80
2022/11/30 07:52:42;;;;;;;22.13;14.03;;;;;;;;;;5054958;28;20698;-80
2022/11/30 07:55:08;;;;;;;23.10;13.67;;;;;;;;;;5053277;28;20186;-80
2022/11/30 07:57:33;;;;;;;28.80;15.27;;;;;;;;;;5034501;28;20193;-80
2022/11/30 07:59:58;;;;;;;24.60;15.07;;;;;;;;;;5054528;28;20221;-80
2022/11/30 08:02:24;;;;;;;23.87;14.87;;;;;;;;;;5053130;28;20178;-81
2022/11/30 08:04:49;;;;;;;26.30;15.17;;;;;;;;;;5057768;28;20206;-81
2022/11/30 08:07:14;;;;;;;25.83;14.67;;;;;;;;;;5057944;28;20236;-81
2022/11/30 08:09:40;;;;;;;27.60;15.93;;;;;;;;;;5057422;28;20219;-80
2022/11/30 08:12:05;;;;;;;24.13;14.87;;;;;;;;;;5055136;28;20311;-80
2022/11/30 08:14:30;;;;;;;26.50;15.03;;;;;;;;;;5058095;28;20279;-80
2022/11/30 08:16:55;;;;;;;24.03;14.53;;;;;;;;;;5055188;28;20178;-80
2022/11/30 08:19:21;;;;;;;24.23;15.07;;;;;;;;;;5054558;28;20546;-80
2022/11/30 08:21:46;;;;;;;25.30;14.70;;;;;;;;;;5053192;28;20184;-81
2022/11/30 08:24:12;;;;;;;25.23;16.10;;;;;;;;;;5056979;28;20197;-80
2022/11/30 08:26:37;;;;;;;27.33;16.07;;;;;;;;;;5057721;28;20177;-80
2022/11/30 08:29:03;;;;;;;23.57;14.73;;;;;;;;;;5055829;28;20231;-80
2022/11/30 08:31:32;;;;;;;26.30;15.53;;;;;;;;;;5058252;28;20553;-80
2022/11/30 08:33:58;;;;;;;28.57;18.23;;;;;;;;;;5063826;28;20213;-80
2022/11/30 08:36:24;;;;;;;26.50;16.80;;;;;;;;;;5046557;28;20261;-80
2022/11/30 08:38:49;;;;;;;27.97;15.87;;;;;;;;;;5053038;28;20177;-80
2022/11/30 08:41:17;;;;;;;29.07;18.10;;;;;;;;;;5051970;28;20184;-80
2022/11/30 08:43:43;;;;;;;26.17;15.03;;;;;;;;;;5040705;28;20212;-80
2022/11/30 08:46:10;;;;;;;26.47;15.80;;;;;;;;;;5043012;28;20292;-80
2022/11/30 08:48:35;;;;;;;26.53;15.77;;;;;;;;;;5041711;28;20260;-80
2022/11/30 08:51:02;;;;;;;24.83;15.87;;;;;;;;;;5033929;28;20276;-80
2022/11/30 08:53:27;;;;;;;27.43;15.30;;;;;;;;;;5035893;28;20198;-80
2022/11/30 08:55:59;;;;;;;29.60;17.10;;;;;;;;;;5049681;28;20667;-80
2022/11/30 08:58:25;;;;;;;26.73;16.37;;;;;;;;;;5052614;28;20181;-80
2022/11/30 09:00:50;;;;;;;26.90;16.33;;;;;;;;;;5060570;28;20188;-79
2022/11/30 09:03:15;;;;;;;29.67;17.20;;;;;;;;;;5042532;28;20205;-79
2022/11/30 09:05:41;;;;;;;25.13;15.87;;;;;;;;;;5064208;28;20204;-79
2022/11/30 09:08:06;;;;;;;26.70;18.13;;;;;;;;;;5049037;28;20166;-80
2022/11/30 09:10:31;;;;;;;24.93;15.57;;;;;;;;;;5062648;28;20310;-79
2022/11/30 09:12:56;;;;;;;27.23;16.20;;;;;;;;;;5067001;28;20197;-79
2022/11/30 09:15:21;;;;;;;23.83;15.30;;;;;;;;;;5046019;28;20201;-79
2022/11/30 09:17:47;;;;;;;24.40;14.87;;;;;;;;;;5060210;28;20446;-79
2022/11/30 09:20:12;;;;;;;30.87;16.33;;;;;;;;;;5066475;28;20184;-79
2022/11/30 09:22:37;;;;;;;28.23;16.83;;;;;;;;;;5055621;28;20263;-79
2022/11/30 09:25:02;;;;;;;25.30;16.43;;;;;;;;;;5063940;28;20193;-79
2022/11/30 09:27:30;;;;;;;27.30;16.50;;;;;;;;;;5061436;28;20256;-79
2022/11/30 09:29:55;;;;;;;27.23;16.73;;;;;;;;;;5041709;28;20173;-79
2022/11/30 09:32:20;;;;;;;24.80;16.23;;;;;;;;;;5058071;28;20205;-81
2022/11/30 09:34:46;;;;;;;26.17;17.40;;;;;;;;;;5058667;28;20185;-79
2022/11/30 09:37:11;;;;;;;23.77;15.40;;;;;;;;;;5057810;28;20178;-79
2022/11/30 09:39:36;;;;;;;28.50;16.83;;;;;;;;;;5058186;28;20228;-80
2022/11/30 09:42:04;;;;;;;25.30;15.00;;;;;;;;;;5061596;28;20181;-80
2022/11/30 09:44:32;;;;;;;24.80;16.00;;;;;;;;;;5054006;28;20197;-80
2022/11/30 09:47:03;;;;;;;25.70;16.17;;;;;;;;;;5041817;28;20209;-80
2022/11/30 09:49:33;;;;;;;24.63;16.03;;;;;;;;;;5054463;28;20241;-79
2022/11/30 09:52:03;;;;;;;25.93;17.73;;;;;;;;;;5060078;28;20177;-79
2022/11/30 09:54:36;;;;;;;22.77;15.83;;;;;;;;;;5044774;28;20193;-79
2022/11/30 09:57:18;;;;;;;24.30;15.63;;;;;;;;;;5063636;28;20219;-79
2022/11/30 09:59:47;;;;;;;23.63;14.93;;;;;;;;;;5056913;28;20648;-79
2022/11/30 10:02:16;;;;;;;23.47;14.43;;;;;;;;;;5057312;28;20177;-79
2022/11/30 10:04:42;;;;;;;21.27;14.53;;;;;;;;;;5041215;28;20201;-79
2022/11/30 10:07:26;;;;;;;22.37;14.07;;;;;;;;;;5041077;28;20220;-79
2022/11/30 10:10:01;;;;;;;22.43;15.33;;;;;;;;;;5064587;28;20174;-81
2022/11/30 10:12:53;;;;;;;19.07;14.93;;;;;;;;;;5056476;28;20208;-78
2022/11/30 10:15:21;;;;;;;21.60;14.57;;;;;;;;;;5042774;28;20197;-81
2022/11/30 10:17:53;;;;;;;22.33;13.87;;;;;;;;;;5052266;28;20228;-78
2022/11/30 10:20:19;;;;;;;21.97;14.23;;;;;;;;;;5055112;28;20181;-80
2022/11/30 10:22:57;;;;;;;20.30;14.03;;;;;;;;;;5036998;28;20240;-81
2022/11/30 10:25:39;;;;;;;23.00;14.70;;;;;;;;;;5049731;28;20218;-80
2022/11/30 10:28:15;;;;;;;18.40;13.53;;;;;;;;;;5056671;28;20227;-81
2022/11/30 10:30:40;;;;;;;22.33;13.97;;;;;;;;;;5038349;28;20256;-80
2022/11/30 10:33:12;;;;;;;21.73;14.17;;;;;;;;;;5056455;28;20244;-81
2022/11/30 10:35:42;;;;;;;18.83;12.60;;;;;;;;;;5058063;28;20182;-80
2022/11/30 10:38:18;;;;;;;18.20;13.43;;;;;;;;;;5062816;28;20624;-80
2022/11/30 10:40:53;;;;;;;20.53;13.93;;;;;;;;;;5049070;28;20179;-79
2022/11/30 10:43:33;;;;;;;23.97;14.00;;;;;;;;;;5054218;28;20203;-79
2022/11/30 10:45:58;;;;;;;20.00;13.00;;;;;;;;;;5054307;28;20232;-80
2022/11/30 10:48:43;;;;;;;21.20;13.73;;;;;;;;;;5041621;28;20182;-80
2022/11/30 10:51:10;;;;;;;19.03;13.07;;;;;;;;;;5047335;28;20284;-79
2022/11/30 10:53:35;;;;;;;18.63;12.80;;;;;;;;;;5048178;28;20704;-79
2022/11/30 10:56:02;;;;;;;19.87;13.37;;;;;;;;;;5054943;28;20182;-79
2022/11/30 10:58:32;;;;;;;18.77;11.77;;;;;;;;;;5052584;28;20186;-80
2022/11/30 11:01:05;;;;;;;17.97;13.07;;;;;;;;;;5055360;28;20189;-79
2022/11/30 11:03:30;;;;;;;21.30;14.00;;;;;;;;;;5054576;28;20242;-80
2022/11/30 11:06:05;;;;;;;19.20;12.83;;;;;;;;;;5052387;28;20198;-79
2022/11/30 11:08:30;;;;;;;19.70;13.33;;;;;;;;;;5057287;28;20650;-79
2022/11/30 11:10:55;;;;;;;20.00;13.43;;;;;;;;;;5049149;28;20229;-80
2022/11/30 11:13:36;;;;;;;18.30;12.77;;;;;;;;;;5041131;28;20197;-80
2022/11/30 11:16:03;;;;;;;18.73;13.00;;;;;;;;;;5038432;28;20275;-80
2022/11/30 11:18:29;;;;;;;20.33;14.90;;;;;;;;;;5040280;28;20184;-80
2022/11/30 11:21:15;;;;;;;19.40;13.27;;;;;;;;;;5054312;28;20220;-80
2022/11/30 11:23:41;;;;;;;17.95;13.65;;;;;;;;;;5053333;28;20201;-81
2022/11/30 11:26:14;;;;;;;19.87;13.70;;;;;;;;;;5055741;28;20247;-80
2022/11/30 11:28:43;;;;;;;21.70;14.35;;;;;;;;;;5060698;28;20256;-80
2022/11/30 11:31:27;;;;;;;18.70;13.77;;;;;;;;;;5051778;28;20178;-80
2022/11/30 11:33:53;;;;;;;17.25;12.65;;;;;;;;;;5062355;28;20204;-82
2022/11/30 11:36:28;;;;;;;18.20;13.50;;;;;;;;;;5053507;28;20185;-80
2022/11/30 11:38:54;;;;;;;19.02;13.18;;;;;;;;;;5045762;28;20239;-80
2022/11/30 11:41:33;;;;;;;17.65;13.18;;;;;;;;;;5041223;28;20189;-80
2022/11/30 11:43:59;;;;;;;17.65;12.93;;;;;;;;;;5056414;28;20193;-80
2022/11/30 11:46:25;;;;;;;17.95;13.23;;;;;;;;;;5049290;28;20227;-80
2022/11/30 11:48:57;;;;;;;17.02;11.73;;;;;;;;;;5053766;28;20273;-81
2022/11/30 11:51:30;;;;;;;18.77;13.30;;;;;;;;;;5061259;28;20678;-81
2022/11/30 11:53:57;;;;;;;17.80;12.35;;;;;;;;;;5049684;28;20244;-80
2022/11/30 11:56:27;;;;;;;20.50;14.15;;;;;;;;;;5063324;28;20205;-78
2022/11/30 11:59:08;;;;;;;19.85;14.40;;;;;;;;;;5039020;28;20198;-81
2022/11/30 12:01:47;;;;;;;18.03;12.83;;;;;;;;;;5034729;28;20196;-80
2022/11/30 12:04:16;;;;;;;21.27;14.25;;;;;;;;;;5060710;28;20201;-80
2022/11/30 12:06:43;;;;;;;21.42;14.35;;;;;;;;;;5038946;28;20216;-80
2022/11/30 12:09:15;;;;;;;20.50;13.25;;;;;;;;;;5040696;28;20185;-80
2022/11/30 12:11:44;;;;;;;22.40;13.95;;;;;;;;;;5055874;28;20205;-79
2022/11/30 12:14:13;;;;;;;19.35;13.60;;;;;;;;;;5052058;28;20851;-80
2022/11/30 12:16:41;;;;;;;22.50;14.68;;;;;;;;;;5051112;28;20236;-80
2022/11/30 12:19:09;;;;;;;19.60;14.07;;;;;;;;;;5054692;28;20192;-80
2022/11/30 12:21:55;;;;;;;18.17;12.85;;;;;;;;;;5053101;28;20185;-80
2022/11/30 12:24:39;;;;;;;19.77;13.20;;;;;;;;;;5034905;28;20224;-80
2022/11/30 12:27:22;;;;;;;21.15;14.20;;;;;;;;;;5050073;28;20184;-80
2022/11/30 12:29:47;;;;;;;20.15;13.68;;;;;;;;;;5042214;28;20177;-80
2022/11/30 12:32:19;;;;;;;21.03;14.27;;;;;;;;;;5035237;28;20184;-80
2022/11/30 12:35:07;;;;;;;18.33;12.80;;;;;;;;;;5055130;28;20931;-80
2022/11/30 12:37:35;;;;;;;18.73;12.93;;;;;;;;;;5032305;28;20228;-80
2022/11/30 12:40:19;;;;;;;18.70;13.77;;;;;;;;;;5052722;28;20185;-80
2022/11/30 12:42:48;;;;;;;19.67;12.57;;;;;;;;;;5049362;28;20752;-80
2022/11/30 12:45:18;;;;;;;18.65;12.48;;;;;;;;;;5052800;28;20716;-80
2022/11/30 12:47:47;;;;;;;18.50;13.13;;;;;;;;;;5051222;28;20757;-80
2022/11/30 12:50:31;;;;;;;19.65;14.07;;;;;;;;;;5041109;28;20268;-80
2022/11/30 12:53:19;;;;;;;21.35;14.38;;;;;;;;;;5048507;28;20294;-80
2022/11/30 12:55:53;;;;;;;21.83;14.27;;;;;;;;;;5048728;28;20185;-80
2022/11/30 12:58:31;;;;;;;20.67;14.00;;;;;;;;;;5036501;28;20222;-80
2022/11/30 13:01:05;;;;;;;20.97;14.37;;;;;;;;;;5051750;28;20185;-80
2022/11/30 13:03:30;;;;;;;22.47;15.67;;;;;;;;;;5055959;28;20213;-80
2022/11/30 13:05:58;;;;;;;18.20;13.93;;;;;;;;;;5061456;28;20217;-82
2022/11/30 13:08:29;;;;;;;20.10;14.25;;;;;;;;;;5055975;28;20597;-80
2022/11/30 13:10:57;;;;;;;20.73;13.93;;;;;;;;;;5037677;28;20166;-80
2022/11/30 13:13:27;;;;;;;19.05;13.70;;;;;;;;;;5055910;28;20193;-80
2022/11/30 13:15:52;;;;;;;19.10;12.48;;;;;;;;;;5056604;28;20243;-80
2022/11/30 13:18:19;;;;;;;20.08;14.55;;;;;;;;;;5056760;28;20606;-80
2022/11/30 13:20:50;;;;;;;21.67;13.20;;;;;;;;;;5046749;28;20185;-82
2022/11/30 13:23:30;;;;;;;19.23;12.82;;;;;;;;;;5056911;28;20198;-82
2022/11/30 13:26:01;;;;;;;18.20;12.85;;;;;;;;;;5056510;28;20678;-80
2022/11/30 13:28:41;;;;;;;21.07;14.37;;;;;;;;;;5059478;28;20178;-80
2022/11/30 13:31:18;;;;;;;23.50;14.83;;;;;;;;;;5056033;28;20210;-79
2022/11/30 13:33:52;;;;;;;20.87;13.17;;;;;;;;;;5034486;22;20236;-73
2022/11/30 13:36:36;;;;;;;19.30;12.70;;;;;;;;;;5030488;28;20188;-73
2022/11/30 13:39:08;;;;;;;20.70;13.60;;;;;;;;;;5032576;28;20265;-73
2022/11/30 13:41:34;;;;;;;22.43;13.60;;;;;;;;;;5015660;28;20260;-73
2022/11/30 13:43:59;;;;;;;23.27;13.60;;;;;;;;;;5009098;28;20206;-73
2022/11/30 13:46:24;;;;;;;20.58;12.80;;;;;;;;;;5034216;28;20300;-74
2022/11/30 13:49:09;;;;;;;28.35;14.65;;;;;;;;;;5033089;28;20179;-73
2022/11/30 13:51:36;;;;;;;17.88;12.05;;;;;;;;;;5030741;28;20185;-74
2022/11/30 13:54:24;;;;;;;18.30;12.27;;;;;;;;;;5036229;28;20543;-73
2022/11/30 13:56:49;;;;;;;18.17;12.88;;;;;;;;;;5002834;28;20193;-73
2022/11/30 13:59:31;;;;;;;18.20;12.93;;;;;;;;;;5013736;28;20182;-73
2022/11/30 14:02:15;;;;;;;17.70;13.05;;;;;;;;;;5026629;28;20679;-73
2022/11/30 14:04:44;;;;;;;18.30;12.13;;;;;;;;;;5032664;28;20198;-73
2022/11/30 14:07:29;;;;;;;20.60;13.05;;;;;;;;;;5026666;28;20249;-73
2022/11/30 14:09:56;;;;;;;20.90;14.30;;;;;;;;;;5030310;28;20612;-73
2022/11/30 14:12:35;;;;;;;19.45;14.15;;;;;;;;;;5030982;28;20178;-73
2022/11/30 14:15:01;;;;;;;22.08;14.10;;;;;;;;;;5014086;28;20575;-74
2022/11/30 14:17:27;;;;;;;19.67;13.10;;;;;;;;;;5031169;28;20186;-73
2022/11/30 14:19:55;;;;;;;21.05;14.30;;;;;;;;;;5028855;28;20189;-73
2022/11/30 14:22:21;;;;;;;20.30;13.87;;;;;;;;;;5029542;28;20186;-73
2022/11/30 14:24:47;;;;;;;19.50;12.87;;;;;;;;;;5012115;28;20214;-73